sensor_id;sensor_type;location;lat;lon;timestamp;pressure;altitude;pressure_sealevel;temperature;humidity
37610;BME280;23457;51.966;8.230;2024-02-16T00:01:48;100456.03;;;10.93;100.00
37610;BME280;23457;51.966;8.230;2024-02-16T00:04:15;100460.22;;;10.80;100.00
37610;BME280;23457;51.966;8.230;2024-02-16T00:06:42;100456.13;;;11.00;100.00
37610;BME280;23457;51.966;8.230;2024-02-16T00:09:10;100449.91;;;10.86;100.00
37610;BME280;23457;51.966;8.230;2024-02-16T00:11:37;100458.56;;;10.85;100.00
37610;BME280;23457;51.966;8.230;2024-02-16T00:14:04;100451.47;;;10.72;100.00
37610;BME280;23457;51.966;8.230;2024-02-16T00:16:30;100446.19;;;10.63;100.00
37610;BME280;23457;51.966;8.230;2024-02-16T00:18:57;100448.88;;;10.72;100.00
37610;BME280;23457;51.966;8.230;2024-02-16T00:21:24;100443.50;;;10.57;100.00
37610;BME280;23457;51.966;8.230;2024-02-16T00:23:51;100447.66;;;10.43;100.00
37610;BME280;23457;51.966;8.230;2024-02-16T00:26:18;100446.91;;;10.53;100.00
37610;BME280;23457;51.966;8.230;2024-02-16T00:28:45;100447.84;;;10.58;100.00
37610;BME280;23457;51.966;8.230;2024-02-16T00:31:13;100449.50;;;10.50;100.00
37610;BME280;23457;51.966;8.230;2024-02-16T00:33:40;100447.84;;;10.58;100.00
37610;BME280;23457;51.966;8.230;2024-02-16T00:36:08;100447.88;;;10.59;100.00
37610;BME280;23457;51.966;8.230;2024-02-16T00:38:36;100446.75;;;10.37;100.00
37610;BME280;23457;51.966;8.230;2024-02-16T00:41:03;100450.31;;;10.46;100.00
37610;BME280;23457;51.966;8.230;2024-02-16T00:43:31;100446.03;;;10.52;100.00
37610;BME280;23457;51.966;8.230;2024-02-16T00:45:58;100441.72;;;10.54;100.00
37610;BME280;23457;51.966;8.230;2024-02-16T00:48:24;100448.69;;;10.55;100.00
37610;BME280;23457;51.966;8.230;2024-02-16T00:50:51;100444.31;;;10.50;100.00
37610;BME280;23457;51.966;8.230;2024-02-16T00:53:18;100445.19;;;10.53;100.00
37610;BME280;23457;51.966;8.230;2024-02-16T00:55:45;100440.94;;;10.60;100.00
37610;BME280;23457;51.966;8.230;2024-02-16T00:58:12;100450.53;;;10.67;100.00
37610;BME280;23457;51.966;8.230;2024-02-16T01:00:39;100446.25;;;10.70;100.00
37610;BME280;23457;51.966;8.230;2024-02-16T01:03:06;100444.44;;;10.62;100.00
37610;BME280;23457;51.966;8.230;2024-02-16T01:05:33;100446.34;;;10.78;100.00
37610;BME280;23457;51.966;8.230;2024-02-16T01:07:59;100451.38;;;10.63;100.00
37610;BME280;23457;51.966;8.230;2024-02-16T01:10:26;100451.38;;;10.64;100.00
37610;BME280;23457;51.966;8.230;2024-02-16T01:12:52;100446.06;;;10.54;100.00
37610;BME280;23457;51.966;8.230;2024-02-16T01:15:22;100440.63;;;10.32;100.00
37610;BME280;23457;51.966;8.230;2024-02-16T01:17:49;100445.91;;;10.41;100.00
37610;BME280;23457;51.966;8.230;2024-02-16T01:20:16;100444.16;;;10.40;100.00
37610;BME280;23457;51.966;8.230;2024-02-16T01:22:43;100439.03;;;10.44;100.00
37610;BME280;23457;51.966;8.230;2024-02-16T01:25:10;100437.31;;;10.46;100.00
37610;BME280;23457;51.966;8.230;2024-02-16T01:27:37;100432.06;;;10.43;100.00
37610;BME280;23457;51.966;8.230;2024-02-16T01:30:04;100436.25;;;10.30;100.00
37610;BME280;23457;51.966;8.230;2024-02-16T01:32:31;100437.25;;;10.38;100.00
37610;BME280;23457;51.966;8.230;2024-02-16T01:34:57;100438.75;;;10.22;100.00
37610;BME280;23457;51.966;8.230;2024-02-16T01:37:25;100428.47;;;10.31;100.00
37610;BME280;23457;51.966;8.230;2024-02-16T01:39:51;100431.00;;;10.24;100.00
37610;BME280;23457;51.966;8.230;2024-02-16T01:42:19;100432.06;;;10.43;100.00
37610;BME280;23457;51.966;8.230;2024-02-16T01:44:46;100426.88;;;10.43;100.00
37610;BME280;23457;51.966;8.230;2024-02-16T01:47:12;100429.56;;;10.52;100.00
37610;BME280;23457;51.966;8.230;2024-02-16T01:49:39;100426.03;;;10.44;100.00
37610;BME280;23457;51.966;8.230;2024-02-16T01:52:07;100433.75;;;10.37;100.00
37610;BME280;23457;51.966;8.230;2024-02-16T01:54:33;100423.31;;;10.34;100.00
37610;BME280;23457;51.966;8.230;2024-02-16T01:57:00;100426.69;;;10.27;100.00
37610;BME280;23457;51.966;8.230;2024-02-16T01:59:28;100421.63;;;10.39;100.00
37610;BME280;23457;51.966;8.230;2024-02-16T02:01:55;100419.03;;;10.36;100.00
37610;BME280;23457;51.966;8.230;2024-02-16T02:04:22;100418.19;;;10.40;100.00
37610;BME280;23457;51.966;8.230;2024-02-16T02:06:49;100412.84;;;10.25;100.00
37610;BME280;23457;51.966;8.230;2024-02-16T02:09:16;100413.84;;;10.36;100.00
37610;BME280;23457;51.966;8.230;2024-02-16T02:11:43;100404.38;;;10.43;100.00
37610;BME280;23457;51.966;8.230;2024-02-16T02:14:10;100400.84;;;10.36;100.00
37610;BME280;23457;51.966;8.230;2024-02-16T02:16:38;100405.19;;;10.39;100.00
37610;BME280;23457;51.966;8.230;2024-02-16T02:19:20;100398.97;;;10.26;100.00
37610;BME280;23457;51.966;8.230;2024-02-16T02:21:47;100407.91;;;10.48;100.00
37610;BME280;23457;51.966;8.230;2024-02-16T02:24:14;100409.63;;;10.48;100.00
37610;BME280;23457;51.966;8.230;2024-02-16T02:26:41;100409.53;;;10.41;100.00
37610;BME280;23457;51.966;8.230;2024-02-16T02:29:07;100394.06;;;10.49;100.00
37610;BME280;23457;51.966;8.230;2024-02-16T02:31:34;100391.56;;;10.58;100.00
37610;BME280;23457;51.966;8.230;2024-02-16T02:34:01;100384.69;;;10.66;100.00
37610;BME280;23457;51.966;8.230;2024-02-16T02:36:28;100387.88;;;10.41;100.00
37610;BME280;23457;51.966;8.230;2024-02-16T02:38:55;100386.28;;;10.49;100.00
37610;BME280;23457;51.966;8.230;2024-02-16T02:41:22;100380.28;;;10.58;100.00
37610;BME280;23457;51.966;8.230;2024-02-16T02:43:49;100377.63;;;10.50;100.00
37610;BME280;23457;51.966;8.230;2024-02-16T02:46:16;100373.28;;;10.51;100.00
37610;BME280;23457;51.966;8.230;2024-02-16T02:48:46;100371.56;;;10.53;100.00
37610;BME280;23457;51.966;8.230;2024-02-16T02:51:18;100371.44;;;10.42;100.00
37610;BME280;23457;51.966;8.230;2024-02-16T02:53:45;100368.03;;;10.45;100.00
37610;BME280;23457;51.966;8.230;2024-02-16T02:56:12;100370.56;;;10.40;100.00
37610;BME280;23457;51.966;8.230;2024-02-16T02:58:39;100363.56;;;10.33;100.00
37610;BME280;23457;51.966;8.230;2024-02-16T03:01:06;100360.88;;;10.27;100.00
37610;BME280;23457;51.966;8.230;2024-02-16T03:03:34;100360.06;;;10.29;100.00
37610;BME280;23457;51.966;8.230;2024-02-16T03:06:02;100360.84;;;10.22;100.00
37610;BME280;23457;51.966;8.230;2024-02-16T03:08:30;100351.34;;;10.27;100.00
37610;BME280;23457;51.966;8.230;2024-02-16T03:10:57;100360.13;;;10.34;100.00
37610;BME280;23457;51.966;8.230;2024-02-16T03:13:27;100360.13;;;10.35;100.00
37610;BME280;23457;51.966;8.230;2024-02-16T03:15:54;100348.75;;;10.24;100.00
37610;BME280;23457;51.966;8.230;2024-02-16T03:18:21;100355.78;;;10.34;100.00
37610;BME280;23457;51.966;8.230;2024-02-16T03:20:49;100349.59;;;10.22;100.00
37610;BME280;23457;51.966;8.230;2024-02-16T03:23:17;100350.56;;;10.31;100.00
37610;BME280;23457;51.966;8.230;2024-02-16T03:25:44;100347.88;;;10.22;100.00
37610;BME280;23457;51.966;8.230;2024-02-16T03:28:12;100355.78;;;10.34;100.00
37610;BME280;23457;51.966;8.230;2024-02-16T03:30:40;100348.81;;;10.32;100.00
37610;BME280;23457;51.966;8.230;2024-02-16T03:33:07;100351.25;;;10.18;100.00
37610;BME280;23457;51.966;8.230;2024-02-16T03:35:35;100348.81;;;10.30;100.00
37610;BME280;23457;51.966;8.230;2024-02-16T03:38:03;100350.34;;;10.16;100.00
37610;BME280;23457;51.966;8.230;2024-02-16T03:40:30;100343.41;;;10.17;100.00
37610;BME280;23457;51.966;8.230;2024-02-16T03:42:58;100351.28;;;10.20;100.00
37610;BME280;23457;51.966;8.230;2024-02-16T03:45:25;100353.78;;;10.12;100.00
37610;BME280;23457;51.966;8.230;2024-02-16T03:47:53;100347.72;;;10.13;100.00
37610;BME280;23457;51.966;8.230;2024-02-16T03:50:21;100350.31;;;10.12;100.00
37610;BME280;23457;51.966;8.230;2024-02-16T03:52:49;100353.63;;;10.03;100.00
37610;BME280;23457;51.966;8.230;2024-02-16T03:55:15;100356.28;;;10.06;100.00
37610;BME280;23457;51.966;8.230;2024-02-16T03:57:42;100357.28;;;10.17;100.00
37610;BME280;23457;51.966;8.230;2024-02-16T04:00:09;100351.81;;;9.94;100.00
37610;BME280;23457;51.966;8.230;2024-02-16T04:02:40;100352.59;;;9.87;100.00
37610;BME280;23457;51.966;8.230;2024-02-16T04:05:07;100348.28;;;9.91;100.00
37610;BME280;23457;51.966;8.230;2024-02-16T04:07:35;100360.25;;;9.80;100.00
37610;BME280;23457;51.966;8.230;2024-02-16T04:10:02;100353.41;;;9.85;100.00
37610;BME280;23457;51.966;8.230;2024-02-16T04:12:29;100357.03;;;9.96;100.00
37610;BME280;23457;51.966;8.230;2024-02-16T04:14:56;100347.50;;;9.96;100.00
37610;BME280;23457;51.966;8.230;2024-02-16T04:17:23;100353.44;;;9.86;100.00
37610;BME280;23457;51.966;8.230;2024-02-16T04:19:50;100348.28;;;9.88;100.00
37610;BME280;23457;51.966;8.230;2024-02-16T04:22:17;100349.03;;;9.81;100.00
37610;BME280;23457;51.966;8.230;2024-02-16T04:24:44;100346.38;;;9.78;100.00
37610;BME280;23457;51.966;8.230;2024-02-16T04:27:11;100359.31;;;9.72;100.00
37610;BME280;23457;51.966;8.230;2024-02-16T04:29:37;100349.00;;;9.79;100.00
37610;BME280;23457;51.966;8.230;2024-02-16T04:32:04;100352.41;;;9.74;100.00
37610;BME280;23457;51.966;8.230;2024-02-16T04:34:31;100348.13;;;9.79;100.00
37610;BME280;23457;51.966;8.230;2024-02-16T04:36:58;100345.56;;;9.80;100.00
37610;BME280;23457;51.966;8.230;2024-02-16T04:39:25;100349.13;;;9.87;100.00
37610;BME280;23457;51.966;8.230;2024-02-16T04:41:51;100353.41;;;9.85;100.00
37610;BME280;23457;51.966;8.230;2024-02-16T04:44:20;100353.22;;;9.71;100.00
37610;BME280;23457;51.966;8.230;2024-02-16T04:46:46;100353.97;;;9.61;100.00
37610;BME280;23457;51.966;8.230;2024-02-16T04:49:13;100353.03;;;9.57;100.00
37610;BME280;23457;51.966;8.230;2024-02-16T04:51:40;100350.44;;;9.57;100.00
37610;BME280;23457;51.966;8.230;2024-02-16T04:54:07;100354.72;;;9.55;100.00
37610;BME280;23457;51.966;8.230;2024-02-16T04:56:34;100344.44;;;9.60;100.00
37610;BME280;23457;51.966;8.230;2024-02-16T04:59:01;100342.72;;;9.60;100.00
37610;BME280;23457;51.966;8.230;2024-02-16T05:01:28;100346.22;;;9.65;100.00
37610;BME280;23457;51.966;8.230;2024-02-16T05:03:56;100341.94;;;9.67;100.00
37610;BME280;23457;51.966;8.230;2024-02-16T05:06:24;100349.59;;;9.58;100.00
37610;BME280;23457;51.966;8.230;2024-02-16T05:08:51;100347.25;;;9.78;100.00
37610;BME280;23457;51.966;8.230;2024-02-16T05:11:18;100349.69;;;9.66;100.00
37610;BME280;23457;51.966;8.230;2024-02-16T05:13:45;100344.56;;;9.70;100.00
37610;BME280;23457;51.966;8.230;2024-02-16T05:16:11;100342.03;;;9.74;100.00
37610;BME280;23457;51.966;8.230;2024-02-16T05:18:38;100341.09;;;9.68;100.00
37610;BME280;23457;51.966;8.230;2024-02-16T05:21:07;100337.53;;;9.60;100.00
37610;BME280;23457;51.966;8.230;2024-02-16T05:23:35;100324.59;;;9.65;100.00
37610;BME280;23457;51.966;8.230;2024-02-16T05:26:02;100322.97;;;9.72;100.00
37610;BME280;23457;51.966;8.230;2024-02-16T05:28:28;100328.13;;;9.70;100.00
37610;BME280;23457;51.966;8.230;2024-02-16T05:30:56;100324.81;;;9.80;100.00
37610;BME280;23457;51.966;8.230;2024-02-16T05:33:24;100329.22;;;9.89;100.00
37610;BME280;23457;51.966;8.230;2024-02-16T05:35:51;100322.28;;;9.85;100.00
37610;BME280;23457;51.966;8.230;2024-02-16T05:38:22;100324.81;;;9.80;100.00
37610;BME280;23457;51.966;8.230;2024-02-16T05:40:59;100330.88;;;9.81;100.00
37610;BME280;23457;51.966;8.230;2024-02-16T05:43:26;100327.34;;;9.74;100.00
37610;BME280;23457;51.966;8.230;2024-02-16T05:45:53;100323.00;;;9.76;100.00
37610;BME280;23457;51.966;8.230;2024-02-16T05:48:20;100319.75;;;9.91;100.00
37610;BME280;23457;51.966;8.230;2024-02-16T05:50:48;100321.28;;;9.77;100.00
37610;BME280;23457;51.966;8.230;2024-02-16T05:53:15;100323.00;;;9.76;100.00
37610;BME280;23457;51.966;8.230;2024-02-16T05:55:42;100327.47;;;9.85;100.00
37610;BME280;23457;51.966;8.230;2024-02-16T05:58:11;100328.28;;;9.82;100.00
37610;BME280;23457;51.966;8.230;2024-02-16T06:00:39;100326.47;;;9.77;100.00
37610;BME280;23457;51.966;8.230;2024-02-16T06:03:06;100328.34;;;9.85;100.00
37610;BME280;23457;51.966;8.230;2024-02-16T06:05:33;100323.03;;;9.78;100.00
37610;BME280;23457;51.966;8.230;2024-02-16T06:08:00;100331.81;;;9.86;100.00
37610;BME280;23457;51.966;8.230;2024-02-16T06:10:27;100327.31;;;9.76;100.00
37610;BME280;23457;51.966;8.230;2024-02-16T06:12:54;100337.84;;;9.85;100.00
37610;BME280;23457;51.966;8.230;2024-02-16T06:15:20;100340.50;;;9.91;100.00
37610;BME280;23457;51.966;8.230;2024-02-16T06:17:50;100339.66;;;9.92;100.00
37610;BME280;23457;51.966;8.230;2024-02-16T06:20:18;100342.28;;;9.93;100.00
37610;BME280;23457;51.966;8.230;2024-02-16T06:22:47;100338.81;;;9.93;100.00
37610;BME280;23457;51.966;8.230;2024-02-16T06:25:14;100341.41;;;9.93;100.00
37610;BME280;23457;51.966;8.230;2024-02-16T06:27:41;100344.81;;;9.89;100.00
37610;BME280;23457;51.966;8.230;2024-02-16T06:30:09;100350.09;;;9.95;100.00
37610;BME280;23457;51.966;8.230;2024-02-16T06:32:41;100351.88;;;9.99;100.00
37610;BME280;23457;51.966;8.230;2024-02-16T06:35:09;100358.81;;;10.03;100.00
37610;BME280;23457;51.966;8.230;2024-02-16T06:37:38;100352.69;;;9.96;100.00
37610;BME280;23457;51.966;8.230;2024-02-16T06:40:06;100359.69;;;10.02;100.00
37610;BME280;23457;51.966;8.230;2024-02-16T06:42:38;100360.50;;;9.96;100.00
37610;BME280;23457;51.966;8.230;2024-02-16T06:45:06;100362.31;;;10.05;100.00
37610;BME280;23457;51.966;8.230;2024-02-16T06:47:33;100354.50;;;10.00;100.00
37610;BME280;23457;51.966;8.230;2024-02-16T06:49:59;100362.31;;;10.05;100.00
37610;BME280;23457;51.966;8.230;2024-02-16T06:52:26;100366.72;;;10.11;100.00
37610;BME280;23457;51.966;8.230;2024-02-16T06:54:53;100360.47;;;9.95;100.00
37610;BME280;23457;51.966;8.230;2024-02-16T06:57:20;100377.88;;;10.00;100.00
37610;BME280;23457;51.966;8.230;2024-02-16T06:59:47;100377.94;;;10.08;100.00
37610;BME280;23457;51.966;8.230;2024-02-16T07:02:14;100387.53;;;10.12;100.00
37610;BME280;23457;51.966;8.230;2024-02-16T07:04:41;100383.16;;;10.10;100.00
37610;BME280;23457;51.966;8.230;2024-02-16T07:07:09;100386.69;;;10.16;100.00
37610;BME280;23457;51.966;8.230;2024-02-16T07:09:35;100388.38;;;10.11;100.00
37610;BME280;23457;51.966;8.230;2024-02-16T07:12:03;100387.53;;;10.12;100.00
37610;BME280;23457;51.966;8.230;2024-02-16T07:14:30;100384.13;;;10.18;100.00
37610;BME280;23457;51.966;8.230;2024-02-16T07:16:56;100385.91;;;10.19;100.00
37610;BME280;23457;51.966;8.230;2024-02-16T07:19:23;100384.94;;;10.15;100.00
37610;BME280;23457;51.966;8.230;2024-02-16T07:21:51;100390.25;;;10.21;100.00
37610;BME280;23457;51.966;8.230;2024-02-16T07:24:18;100388.44;;;10.17;100.00
37610;BME280;23457;51.966;8.230;2024-02-16T07:26:45;100386.66;;;10.12;100.00
37610;BME280;23457;51.966;8.230;2024-02-16T07:29:12;100386.69;;;10.13;100.00
37610;BME280;23457;51.966;8.230;2024-02-16T07:31:43;100386.69;;;10.13;100.00
37610;BME280;23457;51.966;8.230;2024-02-16T07:34:10;100388.28;;;10.05;100.00
37610;BME280;23457;51.966;8.230;2024-02-16T07:36:38;100383.13;;;10.06;100.00
37610;BME280;23457;51.966;8.230;2024-02-16T07:39:05;100383.25;;;10.17;100.00
37610;BME280;23457;51.966;8.230;2024-02-16T07:41:32;100378.28;;;10.32;100.00
37610;BME280;23457;51.966;8.230;2024-02-16T07:43:58;100378.38;;;10.41;100.00
37610;BME280;23457;51.966;8.230;2024-02-16T07:46:25;100374.03;;;10.42;100.00
37610;BME280;23457;51.966;8.230;2024-02-16T07:48:51;100381.00;;;10.45;100.00
37610;BME280;23457;51.966;8.230;2024-02-16T07:51:18;100369.81;;;10.52;100.00
37610;BME280;23457;51.966;8.230;2024-02-16T07:53:45;100370.69;;;10.51;100.00
37610;BME280;23457;51.966;8.230;2024-02-16T07:56:14;100371.69;;;10.65;100.00
37610;BME280;23457;51.966;8.230;2024-02-16T07:58:41;100370.84;;;10.67;100.00
37610;BME280;23457;51.966;8.230;2024-02-16T08:01:12;100368.28;;;10.69;100.00
37610;BME280;23457;51.966;8.230;2024-02-16T08:03:42;100370.94;;;10.78;100.00
37610;BME280;23457;51.966;8.230;2024-02-16T08:06:08;100362.41;;;10.90;100.00
37610;BME280;23457;51.966;8.230;2024-02-16T08:08:35;100375.41;;;10.88;100.00
37610;BME280;23457;51.966;8.230;2024-02-16T08:11:02;100375.53;;;11.03;100.00
37610;BME280;23457;51.966;8.230;2024-02-16T08:13:29;100384.16;;;10.99;100.00
37610;BME280;23457;51.966;8.230;2024-02-16T08:15:56;100394.63;;;11.05;100.00
37610;BME280;23457;51.966;8.230;2024-02-16T08:18:23;100399.06;;;11.19;100.00
37610;BME280;23457;51.966;8.230;2024-02-16T08:20:50;100402.63;;;11.27;100.00
37610;BME280;23457;51.966;8.230;2024-02-16T08:23:18;100398.31;;;11.32;100.00
37610;BME280;23457;51.966;8.230;2024-02-16T08:25:45;100405.31;;;11.42;100.00
37610;BME280;23457;51.966;8.230;2024-02-16T08:28:11;100407.06;;;11.43;100.00
37610;BME280;23457;51.966;8.230;2024-02-16T08:30:38;100415.00;;;11.60;100.00
37610;BME280;23457;51.966;8.230;2024-02-16T08:33:08;100417.63;;;11.66;100.00
37610;BME280;23457;51.966;8.230;2024-02-16T08:35:34;100421.22;;;11.78;100.00
37610;BME280;23457;51.966;8.230;2024-02-16T08:38:01;100419.44;;;11.74;100.00
37610;BME280;23457;51.966;8.230;2024-02-16T08:40:28;100433.53;;;12.01;100.00
37610;BME280;23457;51.966;8.230;2024-02-16T08:42:55;100436.16;;;12.08;100.00
37610;BME280;23457;51.966;8.230;2024-02-16T08:45:22;100425.81;;;12.20;100.00
37610;BME280;23457;51.966;8.230;2024-02-16T08:47:48;100435.47;;;12.44;100.00
37610;BME280;23457;51.966;8.230;2024-02-16T08:50:18;100432.00;;;12.54;100.00
37610;BME280;23457;51.966;8.230;2024-02-16T08:52:45;100423.34;;;12.59;100.00
37610;BME280;23457;51.966;8.230;2024-02-16T08:55:12;100420.81;;;12.77;100.00
37610;BME280;23457;51.966;8.230;2024-02-16T08:57:39;100430.41;;;12.96;100.00
37610;BME280;23457;51.966;8.230;2024-02-16T09:00:06;100428.66;;;13.07;100.00
37610;BME280;23457;51.966;8.230;2024-02-16T09:02:33;100426.06;;;13.10;100.00
37610;BME280;23457;51.966;8.230;2024-02-16T09:05:00;100437.44;;;13.17;100.00
37610;BME280;23457;51.966;8.230;2024-02-16T09:07:27;100434.84;;;13.27;100.00
37610;BME280;23457;51.966;8.230;2024-02-16T09:09:54;100443.53;;;13.37;100.00
37610;BME280;23457;51.966;8.230;2024-02-16T09:12:20;100443.50;;;13.45;100.00
37610;BME280;23457;51.966;8.230;2024-02-16T09:14:47;100449.63;;;13.50;100.00
37610;BME280;23457;51.966;8.230;2024-02-16T09:17:15;100451.38;;;13.51;100.00
37610;BME280;23457;51.966;8.230;2024-02-16T09:19:41;100456.56;;;13.61;100.00
37610;BME280;23457;51.966;8.230;2024-02-16T09:22:08;100458.28;;;13.69;100.00
37610;BME280;23457;51.966;8.230;2024-02-16T09:24:35;100463.53;;;13.72;100.00
37610;BME280;23457;51.966;8.230;2024-02-16T09:27:03;100464.41;;;13.72;100.00
37610;BME280;23457;51.966;8.230;2024-02-16T09:29:31;100468.75;;;13.79;100.00
37610;BME280;23457;51.966;8.230;2024-02-16T09:31:58;100468.75;;;13.64;100.00
37610;BME280;23457;51.966;8.230;2024-02-16T09:34:25;100474.84;;;13.60;100.00
37610;BME280;23457;51.966;8.230;2024-02-16T09:36:52;100481.78;;;13.82;100.00
37610;BME280;23457;51.966;8.230;2024-02-16T09:39:19;100483.53;;;13.83;100.00
37610;BME280;23457;51.966;8.230;2024-02-16T09:41:50;100485.28;;;13.83;100.00
37610;BME280;23457;51.966;8.230;2024-02-16T09:44:17;100486.16;;;13.86;100.00
37610;BME280;23457;51.966;8.230;2024-02-16T09:46:44;100487.88;;;13.83;100.00
37610;BME280;23457;51.966;8.230;2024-02-16T09:49:11;100485.28;;;13.98;100.00
37610;BME280;23457;51.966;8.230;2024-02-16T09:51:38;100484.41;;;13.97;100.00
37610;BME280;23457;51.966;8.230;2024-02-16T09:54:05;100487.91;;;13.75;100.00
37610;BME280;23457;51.966;8.230;2024-02-16T09:56:33;100480.06;;;13.92;100.00
37610;BME280;23457;51.966;8.230;2024-02-16T09:59:00;100494.84;;;14.01;100.00
37610;BME280;23457;51.966;8.230;2024-02-16T10:01:27;100490.50;;;13.98;100.00
37610;BME280;23457;51.966;8.230;2024-02-16T10:04:06;100494.84;;;14.16;100.00
37610;BME280;23457;51.966;8.230;2024-02-16T10:06:46;100491.34;;;14.14;100.00
37610;BME280;23457;51.966;8.230;2024-02-16T10:09:26;100493.94;;;14.08;100.00
37610;BME280;23457;51.966;8.230;2024-02-16T10:11:55;100506.09;;;14.34;100.00
37610;BME280;23457;51.966;8.230;2024-02-16T10:14:22;100499.16;;;14.27;100.00
37610;BME280;23457;51.966;8.230;2024-02-16T10:16:59;100505.22;;;14.52;100.00
37610;BME280;23457;51.966;8.230;2024-02-16T10:19:26;100500.88;;;14.45;100.00
37610;BME280;23457;51.966;8.230;2024-02-16T10:21:53;100507.78;;;14.60;100.00
37610;BME280;23457;51.966;8.230;2024-02-16T10:24:23;100506.03;;;14.59;100.00
37610;BME280;23457;51.966;8.230;2024-02-16T10:26:49;100520.88;;;14.58;100.00
37610;BME280;23457;51.966;8.230;2024-02-16T10:29:20;100517.41;;;14.56;100.00
37610;BME280;23457;51.966;8.230;2024-02-16T10:31:47;100515.63;;;14.64;100.00
37610;BME280;23457;51.966;8.230;2024-02-16T10:34:14;100518.25;;;14.67;100.00
37610;BME280;23457;51.966;8.230;2024-02-16T10:36:43;100526.00;;;14.87;100.00
37610;BME280;23457;51.966;8.230;2024-02-16T10:39:10;100537.34;;;14.88;100.00
37610;BME280;23457;51.966;8.230;2024-02-16T10:41:40;100538.22;;;14.84;100.00
37610;BME280;23457;51.966;8.230;2024-02-16T10:44:07;100535.63;;;14.78;100.00
37610;BME280;23457;51.966;8.230;2024-02-16T10:46:34;100537.47;;;14.56;100.00
37610;BME280;23457;51.966;8.230;2024-02-16T10:49:01;100547.06;;;14.52;100.00
37610;BME280;23457;51.966;8.230;2024-02-16T10:51:40;100545.31;;;14.54;100.00
37610;BME280;23457;51.966;8.230;2024-02-16T10:54:09;100540.91;;;14.59;100.00
37610;BME280;23457;51.966;8.230;2024-02-16T10:56:38;100550.50;;;14.63;100.00
37610;BME280;23457;51.966;8.230;2024-02-16T10:59:09;100547.88;;;14.65;100.00
37610;BME280;23457;51.966;8.230;2024-02-16T11:01:39;100551.34;;;14.72;100.00
37610;BME280;23457;51.966;8.230;2024-02-16T11:04:07;100547.78;;;14.86;100.00
37610;BME280;23457;51.966;8.230;2024-02-16T11:06:54;100560.84;;;14.97;100.00
37610;BME280;23457;51.966;8.230;2024-02-16T11:09:30;100551.28;;;14.85;100.00
37610;BME280;23457;51.966;8.230;2024-02-16T11:12:02;100553.03;;;14.91;100.00
37610;BME280;23457;51.966;8.230;2024-02-16T11:14:42;100559.03;;;15.08;100.00
37610;BME280;23457;51.966;8.230;2024-02-16T11:17:09;100560.81;;;15.00;100.00
37610;BME280;23457;51.966;8.230;2024-02-16T11:19:37;100561.63;;;15.13;100.00
37610;BME280;23457;51.966;8.230;2024-02-16T11:22:06;100557.38;;;14.93;100.00
37610;BME280;23457;51.966;8.230;2024-02-16T11:24:42;100552.91;;;15.09;100.00
37610;BME280;23457;51.966;8.230;2024-02-16T11:27:11;100552.09;;;15.04;100.00
37610;BME280;23457;51.966;8.230;2024-02-16T11:29:39;100553.03;;;14.92;100.00
37610;BME280;23457;51.966;8.230;2024-02-16T11:32:07;100557.34;;;15.02;100.00
37610;BME280;23457;51.966;8.230;2024-02-16T11:34:34;100559.09;;;14.96;100.00
37610;BME280;23457;51.966;8.230;2024-02-16T11:37:02;100554.72;;;15.04;100.00
37610;BME280;23457;51.966;8.230;2024-02-16T11:39:29;100564.38;;;14.82;100.00
37610;BME280;23457;51.966;8.230;2024-02-16T11:42:07;100564.31;;;14.97;100.00
37610;BME280;23457;51.966;8.230;2024-02-16T11:44:38;100567.78;;;15.07;100.00
37610;BME280;23457;51.966;8.230;2024-02-16T11:47:09;100566.88;;;15.08;100.00
37610;BME280;23457;51.966;8.230;2024-02-16T11:49:39;100564.19;;;15.20;100.00
37610;BME280;23457;51.966;8.230;2024-02-16T11:52:07;100573.00;;;15.10;100.00
37610;BME280;23457;51.966;8.230;2024-02-16T11:54:34;100572.03;;;15.25;100.00
37610;BME280;23457;51.966;8.230;2024-02-16T11:57:04;100573.78;;;15.27;100.00
37610;BME280;23457;51.966;8.230;2024-02-16T11:59:31;100573.72;;;15.35;100.00
37610;BME280;23457;51.966;8.230;2024-02-16T12:01:58;100578.13;;;15.31;100.00
37610;BME280;23457;51.966;8.230;2024-02-16T12:04:26;100574.69;;;15.20;100.00
37610;BME280;23457;51.966;8.230;2024-02-16T12:06:57;100574.75;;;15.08;100.00
37610;BME280;23457;51.966;8.230;2024-02-16T12:09:30;100578.13;;;15.31;100.00
37610;BME280;23457;51.966;8.230;2024-02-16T12:12:01;100579.91;;;15.26;100.00
37610;BME280;23457;51.966;8.230;2024-02-16T12:14:29;100584.19;;;15.39;100.00
37610;BME280;23457;51.966;8.230;2024-02-16T12:16:57;100582.50;;;15.26;100.00
37610;BME280;23457;51.966;8.230;2024-02-16T12:19:25;100585.06;;;15.37;100.00
37610;BME280;23457;51.966;8.230;2024-02-16T12:21:52;100578.16;;;15.28;100.00
37610;BME280;23457;51.966;8.230;2024-02-16T12:24:20;100574.59;;;15.37;100.00
37610;BME280;23457;51.966;8.230;2024-02-16T12:26:47;100581.56;;;15.36;100.00
37610;BME280;23457;51.966;8.230;2024-02-16T12:29:15;100584.19;;;15.38;100.00
37610;BME280;23457;51.966;8.230;2024-02-16T12:31:46;100583.25;;;15.47;100.00
37610;BME280;23457;51.966;8.230;2024-02-16T12:34:15;100581.47;;;15.61;100.00
37610;BME280;23457;51.966;8.230;2024-02-16T12:36:43;100590.25;;;15.48;100.00
37610;BME280;23457;51.966;8.230;2024-02-16T12:39:16;100582.44;;;15.41;100.00
37610;BME280;23457;51.966;8.230;2024-02-16T12:41:43;100575.41;;;15.48;100.00
37610;BME280;23457;51.966;8.230;2024-02-16T12:44:10;100588.56;;;15.36;100.00
37610;BME280;23457;51.966;8.230;2024-02-16T12:46:37;100578.09;;;15.34;100.00